sim
Sign-in with your pilot id or email,
or register
Callsign
Passwort

Schedule Details

Flight Number: OEO4162
Departure: Hannover Langenhagen Airport (EDDV) at 05:25
Arrival: Thessaloniki International Airport (LGTS) at 08:05

Weather Information
Getting current METAR information for EDDV 211520Z 27007KT 9999 FEW016 BKN020 10/07 Q1024 NOSIG
Getting current METAR information for LGTS 211520Z 35006KT CAVOK 16/00 Q1021 NOSIG

Schedule Frequency

Route Map